Time;durP1;ratioP1;P1;durP2;ratioP2;P2;SDS_P1;SDS_P2;PMS_P1;PMS_P2;Temp;Humidity;BMP_temperature;BMP_pressure;BME280_temperature;BME280_humidity;BME280_pressure;Samples;Min_cycle;Max_cycle;Signal;HPM_P1;HPM_P2
2022/03/05 00:08:44;;;;;;;0.20;0.10;;;12.50;99.90;;;;;;25571047;23;20178;-68
2022/03/05 00:18:49;;;;;;;0.20;0.10;;;12.20;99.90;;;;;;25520360;23;20195;-75
2022/03/05 00:28:55;;;;;;;0.20;0.10;;;12.30;99.90;;;;;;25449289;23;20203;-74
2022/03/05 00:38:58;;;;;;;0.20;0.10;;;12.50;99.90;;;;;;25422496;23;20195;-70
2022/03/05 00:49:04;;;;;;;0.20;0.10;;;12.40;99.90;;;;;;25447853;23;20168;-70
2022/03/05 00:59:08;;;;;;;0.20;0.10;;;12.40;99.90;;;;;;25448306;23;20197;-71
2022/03/05 01:09:13;;;;;;;0.20;0.10;;;12.30;99.90;;;;;;25422929;23;20186;-69
2022/03/05 01:19:16;;;;;;;0.20;0.10;;;12.20;99.90;;;;;;25503505;23;20214;-70
2022/03/05 01:29:22;;;;;;;0.20;0.10;;;12.00;99.90;;;;;;25544375;23;20250;-70
2022/03/05 01:39:25;;;;;;;0.20;0.10;;;11.90;99.90;;;;;;25569867;23;20194;-73
2022/03/05 01:49:31;;;;;;;0.30;0.30;;;11.80;99.90;;;;;;25570141;23;20167;-67
2022/03/05 01:59:35;;;;;;;0.20;0.10;;;11.80;99.90;;;;;;25570369;23;20151;-68
2022/03/05 02:09:40;;;;;;;0.20;0.03;;;11.80;99.90;;;;;;25575780;23;20179;-70
2022/03/05 02:19:44;;;;;;;0.20;0.10;;;11.80;99.90;;;;;;25550816;23;20199;-68
2022/03/05 02:29:49;;;;;;;0.20;0.10;;;12.00;99.90;;;;;;25550036;23;20178;-67
2022/03/05 02:39:53;;;;;;;0.20;0.10;;;12.00;99.90;;;;;;25548761;23;20167;-68
2022/03/05 02:49:58;;;;;;;0.20;0.10;;;12.00;99.90;;;;;;25574766;23;20167;-68
2022/03/05 03:00:02;;;;;;;0.20;0.10;;;12.10;99.90;;;;;;25574675;23;20178;-67
2022/03/05 03:10:08;;;;;;;0.20;0.10;;;12.10;99.90;;;;;;25574562;23;20175;-67
2022/03/05 03:20:14;;;;;;;0.20;0.00;;;12.00;99.90;;;;;;25572608;23;20209;-68
2022/03/05 03:30:20;;;;;;;0.20;0.10;;;11.70;99.90;;;;;;25572725;23;20183;-68
2022/03/05 03:40:23;;;;;;;0.20;0.10;;;11.60;99.90;;;;;;25572096;23;20162;-68
2022/03/05 03:50:29;;;;;;;0.20;0.10;;;11.60;99.90;;;;;;25545512;23;20182;-68
2022/03/05 04:00:32;;;;;;;0.20;0.10;;;11.50;99.90;;;;;;25571366;23;20170;-69
2022/03/05 04:10:39;;;;;;;0.20;0.10;;;11.50;99.90;;;;;;25570972;23;20187;-68
2022/03/05 04:20:42;;;;;;;0.20;0.10;;;11.40;99.90;;;;;;25570121;23;20206;-68
2022/03/05 04:30:48;;;;;;;0.20;0.10;;;11.30;99.90;;;;;;25519366;23;20205;-66
2022/03/05 04:40:57;;;;;;;0.20;0.10;;;11.10;99.90;;;;;;25543896;23;20170;-67
2022/03/05 04:51:02;;;;;;;0.20;0.10;;;11.00;99.90;;;;;;25542699;23;20202;-69
2022/03/05 05:01:06;;;;;;;0.20;0.10;;;11.00;99.90;;;;;;25542710;23;20171;-70
2022/03/05 05:11:11;;;;;;;0.20;0.10;;;10.80;99.90;;;;;;25568830;23;20209;-72
2022/03/05 05:21:15;;;;;;;0.20;0.10;;;10.70;99.90;;;;;;25568822;23;20195;-70
2022/03/05 05:31:20;;;;;;;0.20;0.10;;;10.60;99.90;;;;;;25567164;23;20190;-70
2022/03/05 05:41:24;;;;;;;0.20;0.10;;;10.60;99.90;;;;;;25544416;23;20167;-70
2022/03/05 05:51:32;;;;;;;0.20;0.10;;;10.40;99.90;;;;;;25575107;23;20195;-70
2022/03/05 06:01:36;;;;;;;0.20;0.10;;;10.20;99.90;;;;;;25574286;23;20347;-70
2022/03/05 06:11:41;;;;;;;0.20;0.00;;;10.20;99.90;;;;;;25572998;23;20202;-70
2022/03/05 06:21:45;;;;;;;0.20;0.10;;;10.20;99.90;;;;;;25548305;23;20214;-70
2022/03/05 06:31:51;;;;;;;0.20;0.10;;;10.20;99.90;;;;;;25575261;23;20186;-71
2022/03/05 06:41:55;;;;;;;0.20;0.10;;;10.30;99.90;;;;;;25576706;23;20159;-71
2022/03/05 06:52:01;;;;;;;0.20;0.10;;;10.50;99.90;;;;;;25574932;23;20186;-74
2022/03/05 07:02:05;;;;;;;0.20;0.10;;;10.50;99.90;;;;;;25572302;23;20171;-73
2022/03/05 07:12:11;;;;;;;0.20;0.10;;;10.70;99.90;;;;;;25571187;23;20268;-75
2022/03/05 07:22:15;;;;;;;0.20;0.10;;;10.70;99.90;;;;;;25570227;23;20203;-73
2022/03/05 07:32:20;;;;;;;0.20;0.10;;;10.70;99.90;;;;;;25568442;23;20201;-74
2022/03/05 07:42:24;;;;;;;0.20;0.10;;;10.90;99.90;;;;;;25543021;23;20167;-70
2022/03/05 07:52:29;;;;;;;0.20;0.20;;;11.00;99.90;;;;;;25541063;23;20205;-70
2022/03/05 08:02:32;;;;;;;0.20;0.10;;;11.10;99.90;;;;;;25542253;23;20178;-68
2022/03/05 08:12:38;;;;;;;0.20;0.10;;;11.30;99.90;;;;;;25566062;23;20233;-68
2022/03/05 08:22:42;;;;;;;0.20;0.10;;;11.40;99.90;;;;;;25541691;23;20194;-68
2022/03/05 08:32:47;;;;;;;0.20;0.20;;;11.30;99.90;;;;;;25565132;23;20202;-68
2022/03/05 08:42:51;;;;;;;0.20;0.10;;;11.50;99.90;;;;;;25538296;23;20194;-67
2022/03/05 08:52:56;;;;;;;0.20;0.10;;;11.70;99.90;;;;;;25563936;23;20198;-68
2022/03/05 09:03:00;;;;;;;0.20;0.10;;;11.90;99.90;;;;;;25535681;23;20177;-69
2022/03/05 09:13:06;;;;;;;0.20;0.00;;;12.00;99.90;;;;;;25564326;23;20190;-67
2022/03/05 09:23:09;;;;;;;0.20;0.10;;;12.70;99.90;;;;;;25569533;23;20299;-69
2022/03/05 09:33:15;;;;;;;0.20;0.10;;;13.00;99.90;;;;;;25567423;23;20182;-67
2022/03/05 09:43:19;;;;;;;0.20;0.10;;;13.40;99.90;;;;;;25567861;23;20155;-68
2022/03/05 09:53:28;;;;;;;0.20;0.00;;;13.80;99.90;;;;;;25541652;23;20198;-67
2022/03/05 10:03:44;;;;;;;0.20;0.10;;;15.10;99.90;;;;;;25539724;23;20222;-68
2022/03/05 10:13:49;;;;;;;0.20;0.03;;;15.70;99.90;;;;;;25540999;23;20213;-68
2022/03/05 10:24:05;;;;;;;0.20;0.00;;;15.30;99.90;;;;;;25538477;23;20230;-74
2022/03/05 10:34:51;;;;;;;0.20;0.10;;;16.20;99.90;;;;;;25563005;23;20217;-74
2022/03/05 10:45:01;;;;;;;0.20;0.10;;;16.80;99.90;;;;;;25536819;23;20207;-73
2022/03/05 10:55:16;;;;;;;0.30;0.30;;;17.20;99.90;;;;;;25538013;23;20638;-77
2022/03/05 11:05:20;;;;;;;0.50;0.50;;;18.60;99.90;;;;;;25561514;23;20181;-69
2022/03/05 11:15:25;;;;;;;0.20;0.00;;;19.60;99.90;;;;;;25560587;23;20199;-67
2022/03/05 11:25:31;;;;;;;0.20;0.10;;;18.80;99.90;;;;;;25536770;23;20171;-68
2022/03/05 11:35:42;;;;;;;0.20;0.10;;;18.60;99.90;;;;;;25536083;23;20213;-68
2022/03/05 11:45:51;;;;;;;0.20;0.10;;;17.70;99.90;;;;;;25533320;23;20177;-68
2022/03/05 11:55:57;;;;;;;0.20;0.10;;;18.40;99.90;;;;;;25555542;23;20231;-67
2022/03/05 12:06:03;;;;;;;0.20;0.10;;;18.80;99.90;;;;;;25528617;23;20239;-69
2022/03/05 12:16:16;;;;;;;0.20;0.00;;;18.80;99.90;;;;;;25560390;23;20200;-76
2022/03/05 12:26:28;;;;;;;0.20;0.00;;;18.20;99.90;;;;;;25560480;23;20169;-76
2022/03/05 12:36:34;;;;;;;0.20;0.10;;;18.30;99.90;;;;;;25561570;23;20190;-74
2022/03/05 12:46:38;;;;;;;0.20;0.10;;;17.20;99.90;;;;;;25535502;23;20473;-77
2022/03/05 12:56:43;;;;;;;0.20;0.00;;;17.90;99.90;;;;;;25532953;23;20198;-67
2022/03/05 13:06:48;;;;;;;0.20;0.00;;;19.70;99.90;;;;;;25556039;23;20714;-67
2022/03/05 13:16:54;;;;;;;0.20;0.10;;;17.90;99.90;;;;;;25533781;23;20306;-68
2022/03/05 13:26:58;;;;;;;0.20;0.10;;;17.60;99.90;;;;;;25563240;23;20167;-69
2022/03/05 13:37:09;;;;;;;0.20;0.10;;;20.60;99.90;;;;;;25535938;23;20687;-73
2022/03/05 13:47:14;;;;;;;0.20;0.10;;;20.00;99.90;;;;;;25532492;23;20235;-69
2022/03/05 13:57:29;;;;;;;0.20;0.10;;;18.00;99.90;;;;;;25564012;23;20183;-67
2022/03/05 14:07:36;;;;;;;7.30;0.87;;;17.20;99.90;;;;;;25545122;23;20189;-68
2022/03/05 14:17:43;;;;;;;2.00;1.90;;;18.30;99.90;;;;;;25571859;23;20202;-66
2022/03/05 14:27:48;;;;;;;0.20;0.10;;;16.60;99.90;;;;;;25572575;23;20167;-70
2022/03/05 14:37:54;;;;;;;0.20;0.00;;;15.90;99.90;;;;;;25572184;23;20186;-66
2022/03/05 14:47:58;;;;;;;0.20;0.00;;;15.50;99.90;;;;;;25568320;23;20162;-68
2022/03/05 14:58:05;;;;;;;0.20;0.10;;;15.30;99.90;;;;;;25568772;23;20190;-66
2022/03/05 15:08:09;;;;;;;0.20;0.10;;;15.20;99.90;;;;;;25565940;23;20207;-67
2022/03/05 15:18:14;;;;;;;0.20;0.00;;;15.00;99.90;;;;;;25541842;23;20218;-67
2022/03/05 15:28:18;;;;;;;0.20;0.00;;;15.50;99.90;;;;;;25566875;23;20171;-66
2022/03/05 15:38:23;;;;;;;0.20;0.10;;;15.20;99.90;;;;;;25564968;23;20183;-68
2022/03/05 15:48:27;;;;;;;0.20;0.10;;;15.20;99.90;;;;;;25564945;23;20166;-69
2022/03/05 15:58:33;;;;;;;0.20;0.10;;;14.90;99.90;;;;;;25561487;23;20182;-68
2022/03/05 16:08:37;;;;;;;0.20;0.00;;;14.80;99.90;;;;;;25561908;23;20183;-67
2022/03/05 16:18:44;;;;;;;0.20;0.00;;;14.80;99.90;;;;;;25535380;23;20218;-68
2022/03/05 16:28:48;;;;;;;0.20;0.10;;;15.20;99.90;;;;;;25560094;23;20163;-69
2022/03/05 16:38:53;;;;;;;0.20;0.00;;;14.90;99.90;;;;;;25534913;23;20194;-67
2022/03/05 16:48:57;;;;;;;0.20;0.10;;;14.50;99.90;;;;;;25558893;23;20139;-67
2022/03/05 16:59:02;;;;;;;0.20;0.03;;;14.30;99.90;;;;;;25530774;23;20199;-69
2022/03/05 17:09:06;;;;;;;0.20;0.10;;;14.30;99.90;;;;;;25555599;23;20166;-72
2022/03/05 17:19:11;;;;;;;0.20;0.10;;;14.20;99.90;;;;;;25558742;23;20202;-69
2022/03/05 17:29:15;;;;;;;0.20;0.10;;;14.00;99.90;;;;;;25557419;23;20159;-70
2022/03/05 17:39:22;;;;;;;0.20;0.10;;;13.80;99.90;;;;;;25562639;23;20202;-71
2022/03/05 17:49:27;;;;;;;0.20;0.10;;;13.60;99.90;;;;;;25565401;23;20166;-70
2022/03/05 17:59:32;;;;;;;0.20;0.10;;;13.60;99.90;;;;;;25566968;23;20211;-71
2022/03/05 18:09:36;;;;;;;0.20;0.10;;;13.60;99.90;;;;;;25565877;23;20166;-71
2022/03/05 18:19:42;;;;;;;0.20;0.10;;;13.30;99.90;;;;;;25538938;23;20223;-72
2022/03/05 18:29:46;;;;;;;0.20;0.10;;;13.20;99.90;;;;;;25567628;23;20170;-69
2022/03/05 18:39:51;;;;;;;0.20;0.10;;;12.90;99.90;;;;;;25540628;23;20194;-68
2022/03/05 18:49:55;;;;;;;0.20;0.10;;;12.90;99.90;;;;;;25566201;23;20178;-68
2022/03/05 19:00:00;;;;;;;0.20;0.10;;;12.80;99.90;;;;;;25564584;23;20187;-67
2022/03/05 19:10:05;;;;;;;0.20;0.10;;;12.60;99.90;;;;;;25565034;23;20163;-68
2022/03/05 19:20:12;;;;;;;0.20;0.10;;;12.60;99.90;;;;;;25562167;23;20194;-67
2022/03/05 19:30:18;;;;;;;0.20;0.10;;;11.90;99.90;;;;;;25535549;23;20175;-67
2022/03/05 19:40:26;;;;;;;0.20;0.10;;;11.10;99.90;;;;;;25562523;23;20183;-68
2022/03/05 19:50:31;;;;;;;0.20;0.10;;;11.00;99.90;;;;;;25536967;23;20170;-67
2022/03/05 20:00:37;;;;;;;0.20;0.10;;;10.60;99.90;;;;;;25536206;23;20182;-66
2022/03/05 20:10:41;;;;;;;0.20;0.10;;;10.70;99.90;;;;;;25533671;23;20167;-69
2022/03/05 20:20:46;;;;;;;0.20;0.10;;;10.70;99.90;;;;;;25533722;23;20217;-69
2022/03/05 20:30:50;;;;;;;0.20;0.10;;;10.70;99.90;;;;;;25533806;23;20171;-69
2022/03/05 20:40:56;;;;;;;0.20;0.10;;;10.60;99.90;;;;;;25532644;23;20194;-67
2022/03/05 20:50:59;;;;;;;0.20;0.20;;;10.80;99.90;;;;;;25559887;23;20155;-68
2022/03/05 21:01:05;;;;;;;0.20;0.20;;;10.80;99.90;;;;;;25559014;23;20202;-68
2022/03/05 21:11:09;;;;;;;0.20;0.10;;;10.80;99.90;;;;;;25534946;23;20699;-68
